MSC Fantasia — 3ETR7 — position and weather

sailwx.info

Track history (hours):
 
Tides and Currents Weather Stations Pressure Air Temp Water Temp Dewpoint Dewpoint Depression Visibility Wind Speed Wind Dir Waves Ship Positions

MSC Fantasia

Last reported at 2018-Jun-25 00:29 UTC. Time now 2018-Jun-25 00:40 UTC.
Position N 43°34' E 007°49'.

Length 333 m; draft 8.6 m.

Type: Ship. MMSI: 370648000.

Date/timePositionNaut miles runAvg speedWind from/ knotsBaromVisibWave heightAir tempDewpointWater temp
2018-Jun-25 00:29N 43°34' E 007°49'4 8.8
2018-Jun-25 00:00N 43°36' E 007°55'4 8.6
2018-Jun-24 23:30N 43°37' E 008°00'4 8.4
2018-Jun-24 23:00N 43°39' E 008°06'4 8.3
2018-Jun-24 22:30N 43°41' E 008°11'4 8.5
2018-Jun-24 22:00N 43°43' E 008°16'4 8.6
2018-Jun-24 21:30N 43°45' E 008°20'4 8.6
2018-Jun-24 21:00N 43°49' E 008°24'4 8.8
2018-Jun-24 20:30N 43°52' E 008°28'4 8.9
2018-Jun-24 20:00N 43°56' E 008°32'5 9.0
2018-Jun-24 19:30N 43°59' E 008°36'4 8.9
2018-Jun-24 19:00N 44°03' E 008°40'4 9.0
2018-Jun-24 18:30N 44°06' E 008°43'5 9.1
2018-Jun-24 18:00N 44°10' E 008°47'5 9.2
2018-Jun-24 17:30N 44°13' E 008°51'5 9.1
2018-Jun-24 17:00N 44°17' E 008°55'4 8.6
2018-Jun-24 16:30N 44°21' E 008°57'4 7.9
2018-Jun-24 16:00N 44°25' E 008°55'0 0.2
2018-Jun-24 15:31N 44°25' E 008°55'0 0.0
2018-Jun-24 15:00N 44°25' E 008°55'0 0.0
2018-Jun-24 14:30N 44°25' E 008°55'0 0.0
2018-Jun-24 14:00N 44°25' E 008°55'0 0.0
2018-Jun-24 13:30N 44°25' E 008°55'0 0.0
2018-Jun-24 12:59N 44°25' E 008°55'0 0.0
2018-Jun-24 12:29N 44°25' E 008°55'0 0.0
2018-Jun-24 11:59N 44°25' E 008°55'0 0.0
2018-Jun-24 11:29N 44°25' E 008°55'0 0.0
2018-Jun-24 10:59N 44°25' E 008°55'0 0.0
2018-Jun-24 10:28N 44°25' E 008°55'0 0.0
2018-Jun-24 09:58N 44°25' E 008°55'0 0.0
2018-Jun-24 09:25N 44°25' E 008°55'0 0.0
2018-Jun-24 08:58N 44°25' E 008°55'0 0.0
2018-Jun-24 08:27N 44°25' E 008°55'0 0.0
2018-Jun-24 08:00N 44°25' E 008°55'0 0.0
2018-Jun-24 07:30N 44°25' E 008°55'0 0.0
2018-Jun-24 07:00N 44°25' E 008°55'0 0.0
2018-Jun-24 06:30N 44°25' E 008°55'0 0.0
2018-Jun-24 05:59N 44°25' E 008°55'0 0.0
2018-Jun-24 05:31N 44°25' E 008°55'1 2.6
2018-Jun-24 05:01N 44°24' E 008°56'4 8.6
2018-Jun-24 04:30N 44°20' E 008°59'4 8.8
2018-Jun-24 04:01N 44°15' E 008°59'5 9.0
2018-Jun-24 03:30N 44°11' E 008°59'4 8.6
2018-Jun-24 03:01N 44°07' E 008°59'4 8.1
2018-Jun-24 02:31N 44°03' E 008°59'4 7.9
2018-Jun-24 02:01N 43°59' E 008°59'4 7.9
2018-Jun-24 01:31N 43°55' E 008°59'4 8.0
2018-Jun-24 01:01N 43°51' E 008°59'4 8.0
2018-Jun-24 00:31N 43°47' E 008°59'4 8.1
2018-Jun-24 00:01N 43°43' E 008°59'4 7.7
2018-Jun-23 23:31N 43°39' E 009°02'4 8.2
2018-Jun-23 23:01N 43°39' E 009°07'4 8.1
2018-Jun-23 22:31N 43°39' E 009°13'4 8.2
2018-Jun-23 22:01N 43°39' E 009°19'4 7.9
2018-Jun-23 21:30N 43°38' E 009°24'4 8.3
2018-Jun-23 21:00N 43°38' E 009°30'4 8.3
2018-Jun-23 20:31N 43°41' E 009°34'4 8.2
2018-Jun-23 20:00N 43°44' E 009°38'4 8.2
2018-Jun-23 19:31N 43°47' E 009°42'4 8.4
2018-Jun-23 19:00N 43°50' E 009°46'4 8.4
2018-Jun-23 18:31N 43°53' E 009°50'4 8.1
2018-Jun-23 18:00N 43°57' E 009°52'4 9.0
2018-Jun-23 17:31N 44°01' E 009°52'4 8.7
2018-Jun-23 17:01N 44°05' E 009°51'1 2.1
2018-Jun-23 16:28N 44°06' E 009°50'0 0.0
2018-Jun-23 15:58N 44°06' E 009°50'0 0.0
2018-Jun-23 15:30N 44°06' E 009°50'0 0.0
2018-Jun-23 15:00N 44°06' E 009°50'0 0.0
2018-Jun-23 14:30N 44°06' E 009°50'0 0.0
2018-Jun-23 14:00N 44°06' E 009°50'0 0.0
2018-Jun-23 13:30N 44°06' E 009°50'0 0.0
2018-Jun-23 12:59N 44°06' E 009°50'0 0.0
2018-Jun-23 12:29N 44°06' E 009°50'0 0.0
2018-Jun-23 11:59N 44°06' E 009°50'0 0.0
2018-Jun-23 11:29N 44°06' E 009°50'0 0.0
2018-Jun-23 10:58N 44°06' E 009°50'0 0.0
2018-Jun-23 10:28N 44°06' E 009°50'0 0.0
2018-Jun-23 09:58N 44°06' E 009°50'0 0.0
2018-Jun-23 09:28N 44°06' E 009°50'0 0.0
2018-Jun-23 08:58N 44°06' E 009°50'0 0.0
2018-Jun-23 08:30N 44°06' E 009°50'0 0.0
2018-Jun-23 08:00N 44°06' E 009°50'0 0.0
2018-Jun-23 07:30N 44°06' E 009°50'0 0.0
2018-Jun-23 07:00N 44°06' E 009°50'0 0.0
2018-Jun-23 06:29N 44°06' E 009°50'0 0.0
2018-Jun-23 05:59N 44°06' E 009°50'0 0.0
2018-Jun-23 05:29N 44°06' E 009°50'0 0.0
2018-Jun-23 04:59N 44°06' E 009°50'0 0.9
2018-Jun-23 04:30N 44°06' E 009°51'4 8.3
2018-Jun-23 04:01N 44°02' E 009°53'612.6
2018-Jun-23 03:31N 43°56' E 009°56'816.5
2018-Jun-23 03:01N 43°49' E 009°51'816.5
2018-Jun-23 02:31N 43°41' E 009°46'917.4
2018-Jun-23 02:01N 43°33' E 009°44'917.1
2018-Jun-23 01:30N 43°24' E 009°43'817.0
2018-Jun-23 01:01N 43°16' E 009°41'816.9
2018-Jun-23 00:31N 43°07' E 009°39'816.8
2018-Jun-23 00:01N 42°59' E 009°39'816.4
2018-Jun-22 23:30N 42°52' E 009°45'1017.4
2018-Jun-22 22:56N 42°46' E 009°56'917.4
2018-Jun-22 22:24N 42°40' E 010°06'818.0
2018-Jun-22 21:58N 42°36' E 010°15'818.2
2018-Jun-22 21:30N 42°30' E 010°23'918.0
2018-Jun-22 20:58N 42°24' E 010°33'3417.6
2018-Jun-22 19:04N 42°07' E 011°12'118.4
2018-Jun-22 19:01N 42°07' E 011°14'11 0.7
2018-Jun-22 02:59N 41°60' E 011°26'1214.0
2018-Jun-22 02:07N 41°55' E 011°10'313.9
2018-Jun-22 01:55N 41°54' E 011°07'613.9
2018-Jun-22 01:30N 41°52' E 011°00'713.9
2018-Jun-22 01:00N 41°49' E 010°51'713.9
2018-Jun-22 00:30N 41°46' E 010°43'714.2
2018-Jun-22 00:00N 41°43' E 010°34'1114.1
2018-Jun-21 23:16N 41°40' E 010°21'414.1
2018-Jun-21 23:00N 41°38' E 010°17'714.2
2018-Jun-21 22:30N 41°36' E 010°08'714.4
2018-Jun-21 22:00N 41°32' E 009°59'1117.6
2018-Jun-21 21:22N 41°27' E 009°46'617.0
2018-Jun-21 21:00N 41°25' E 009°39'917.3
2018-Jun-21 20:30N 41°23' E 009°27'4114.9
2018-Jun-21 17:46N 41°41' E 008°38'10 1.1
2018-Jun-21 08:38N 41°50' E 008°40'318.7
2018-Jun-21 08:30N 41°49' E 008°37'3418.5
2018-Jun-21 06:41N 41°43' E 007°53'318.5
2018-Jun-21 06:30N 41°42' E 007°48'1118.3
2018-Jun-21 05:54N 41°41' E 007°33'817.6
2018-Jun-21 05:25N 41°40' E 007°22'717.4
2018-Jun-21 05:00N 41°39' E 007°12'917.2
2018-Jun-21 04:30N 41°39' E 007°01'21318.3
2018-Jun-20 16:55N 41°15' E 002°19'615.7
2018-Jun-20 16:30N 41°16' E 002°11'510.2
2018-Jun-20 16:00N 41°21' E 002°10'0 0.9
2018-Jun-20 15:30N 41°22' E 002°11'0 0.0
2018-Jun-20 14:56N 41°22' E 002°11'0 0.0
2018-Jun-20 14:29N 41°22' E 002°11'0 0.0
2018-Jun-20 13:59N 41°22' E 002°11'0 0.0
2018-Jun-20 13:29N 41°22' E 002°11'0 0.0
2018-Jun-20 12:59N 41°22' E 002°11'0 0.0
2018-Jun-20 12:25N 41°22' E 002°11'0 0.0
2018-Jun-20 11:58N 41°22' E 002°11'0 0.0
2018-Jun-20 11:25N 41°22' E 002°11'0 0.0
2018-Jun-20 10:55N 41°22' E 002°11'0 0.0
2018-Jun-20 10:30N 41°22' E 002°11'0 0.0
2018-Jun-20 10:00N 41°22' E 002°11'0 0.0
2018-Jun-20 09:30N 41°22' E 002°11'0 0.0
2018-Jun-20 09:00N 41°22' E 002°11'0 0.0
2018-Jun-20 08:30N 41°22' E 002°11'0 0.0
2018-Jun-20 07:59N 41°22' E 002°11'0 0.0
2018-Jun-20 07:29N 41°22' E 002°11'0 0.0
2018-Jun-20 06:59N 41°22' E 002°11'0 0.0
2018-Jun-20 06:29N 41°22' E 002°11'1 1.3
2018-Jun-20 06:00N 41°21' E 002°10'3 6.1
2018-Jun-20 05:30N 41°18' E 002°11'816.4
2018-Jun-20 05:00N 41°10' E 002°11'918.1
2018-Jun-20 04:30N 41°01' E 002°11'917.8
2018-Jun-20 03:59N 40°52' E 002°11'918.0
2018-Jun-20 03:30N 40°43' E 002°12'918.5
2018-Jun-20 03:00N 40°34' E 002°12'1118.7
2018-Jun-20 02:27N 40°23' E 002°12'5520.4
2018-Jun-19 23:44N 39°28' E 002°22'521.2
2018-Jun-19 23:30N 39°26' E 002°27'918.4
2018-Jun-19 23:00N 39°30' E 002°37'3 5.6
2018-Jun-19 22:30N 39°33' E 002°38'0 0.0
2018-Jun-19 21:59N 39°33' E 002°38'0 0.0
2018-Jun-19 21:29N 39°33' E 002°38'0 0.0
2018-Jun-19 20:58N 39°33' E 002°38'0 0.0
2018-Jun-19 20:28N 39°33' E 002°38'0 0.0
2018-Jun-19 19:58N 39°33' E 002°38'0 0.0
2018-Jun-19 19:28N 39°33' E 002°38'0 0.0
2018-Jun-19 18:58N 39°33' E 002°38'0 0.0
2018-Jun-19 18:30N 39°33' E 002°38'0 0.0
2018-Jun-19 18:00N 39°33' E 002°38'0 0.0
2018-Jun-19 17:30N 39°33' E 002°38'0 0.0
2018-Jun-19 17:00N 39°33' E 002°38'0 0.0
2018-Jun-19 16:30N 39°33' E 002°38'0 0.0
2018-Jun-19 15:59N 39°33' E 002°38'0 0.0
2018-Jun-19 15:29N 39°33' E 002°38'0 0.0
2018-Jun-19 14:59N 39°33' E 002°38'0 0.0
2018-Jun-19 14:29N 39°33' E 002°38'0 0.0
2018-Jun-19 13:58N 39°33' E 002°38'0 0.0
2018-Jun-19 13:28N 39°33' E 002°38'0 0.0
2018-Jun-19 12:58N 39°33' E 002°38'0 0.0
2018-Jun-19 12:28N 39°33' E 002°38'0 0.0
2018-Jun-19 12:01N 39°33' E 002°38'0 0.1
2018-Jun-19 11:30N 39°33' E 002°38'1 2.7
2018-Jun-19 11:00N 39°32' E 002°39'714.6
2018-Jun-19 10:30N 39°26' E 002°34'2510.5
2018-Jun-19 08:07N 39°51' E 002°37'217.4
2018-Jun-19 08:00N 39°52' E 002°39'917.3
2018-Jun-19 07:29N 39°58' E 002°48'24818.4
2018-Jun-18 17:57N 42°42' E 006°56'919.3
2018-Jun-18 17:30N 42°49' E 007°03'1420.2
2018-Jun-18 16:49N 43°03' E 007°03'620.1
2018-Jun-18 16:29N 43°09' E 007°03'1020.6
2018-Jun-18 16:00N 43°19' E 007°01'1020.0
2018-Jun-18 15:30N 43°29' E 007°01'3 5.6
2018-Jun-18 14:58N 43°32' E 007°01'0 0.0
2018-Jun-18 14:28N 43°32' E 007°01'0 0.0
2018-Jun-18 13:55N 43°32' E 007°01'0 0.0
2018-Jun-18 13:30N 43°32' E 007°01'0 0.0
2018-Jun-18 13:00N 43°32' E 007°01'0 0.0
2018-Jun-18 12:30N 43°32' E 007°01'0 0.0
2018-Jun-18 12:00N 43°32' E 007°01'0 0.0
2018-Jun-18 11:23N 43°32' E 007°01'0 0.0
2018-Jun-18 10:59N 43°32' E 007°01'0 0.0
2018-Jun-18 10:29N 43°32' E 007°01'0 0.0
2018-Jun-18 09:59N 43°32' E 007°01'0 0.0
2018-Jun-18 09:29N 43°32' E 007°01'0 0.0
2018-Jun-18 08:58N 43°32' E 007°01'0 0.0
2018-Jun-18 08:28N 43°32' E 007°01'0 0.0
2018-Jun-18 07:58N 43°32' E 007°01'0 0.0
2018-Jun-18 07:28N 43°32' E 007°01'0 0.0
2018-Jun-18 07:01N 43°32' E 007°01'0 0.0
2018-Jun-18 06:30N 43°32' E 007°01'0 0.0
2018-Jun-18 06:00N 43°32' E 007°01'0 0.0
2018-Jun-18 05:31N 43°32' E 007°01'0 0.1
2018-Jun-18 05:00N 43°32' E 007°01'3 5.8
2018-Jun-18 04:30N 43°29' E 007°01'4 8.4
2018-Jun-18 04:01N 43°28' E 007°07'4 8.7
2018-Jun-18 03:30N 43°28' E 007°13'4 8.6
2018-Jun-18 03:00N 43°29' E 007°19'4 8.7
2018-Jun-18 02:30N 43°30' E 007°25'4 9.0
2018-Jun-18 02:00N 43°31' E 007°31'4 9.0
2018-Jun-18 01:31N 43°32' E 007°37'5 9.0
2018-Jun-18 01:00N 43°33' E 007°43'5 9.0
2018-Jun-18 00:30N 43°34' E 007°49'5 9.0
2018-Jun-17 23:55N 43°36' E 007°55'4 9.0
2018-Jun-17 23:30N 43°37' E 008°00'4 9.0
2018-Jun-17 23:01N 43°39' E 008°06'5 9.0
2018-Jun-17 22:30N 43°41' E 008°12'4 9.0
2018-Jun-17 22:00N 43°43' E 008°17'4 9.0
2018-Jun-17 21:31N 43°46' E 008°21'5 9.2
2018-Jun-17 21:00N 43°50' E 008°25'5 9.2
2018-Jun-17 20:30N 43°53' E 008°29'5 9.3
2018-Jun-17 20:01N 43°57' E 008°33'5 9.3
2018-Jun-17 19:31N 44°01' E 008°37'5 9.1
2018-Jun-17 19:00N 44°04' E 008°41'5 9.2
2018-Jun-17 18:30N 44°08' E 008°45'5 9.2
2018-Jun-17 18:01N 44°12' E 008°49'5 9.2
2018-Jun-17 17:30N 44°15' E 008°53'5 9.1
2018-Jun-17 17:01N 44°19' E 008°57'5 9.4
2018-Jun-17 16:30N 44°23' E 008°56'2 3.4
2018-Jun-17 16:00N 44°25' E 008°55'0 0.0
2018-Jun-17 15:27N 44°25' E 008°55'0 0.0
2018-Jun-17 14:57N 44°25' E 008°55'0 0.0
2018-Jun-17 14:27N 44°25' E 008°55'0 0.0
2018-Jun-17 13:56N 44°25' E 008°55'0 0.0
2018-Jun-17 13:29N 44°25' E 008°55'0 0.0
2018-Jun-17 12:59N 44°25' E 008°55'0 0.0
2018-Jun-17 12:26N 44°25' E 008°55'0 0.0
2018-Jun-17 11:53N 44°25' E 008°55'0 0.0
2018-Jun-17 11:25N 44°25' E 008°55'0 0.0
2018-Jun-17 10:58N 44°25' E 008°55'0 0.0
2018-Jun-17 10:28N 44°25' E 008°55'0 0.0
2018-Jun-17 09:58N 44°25' E 008°55'0 0.0
2018-Jun-17 09:24N 44°25' E 008°55'0 0.0
2018-Jun-17 09:00N 44°25' E 008°55'0 0.0
2018-Jun-17 08:30N 44°25' E 008°55'0 0.0
2018-Jun-17 08:00N 44°25' E 008°55'0 0.0
2018-Jun-17 07:30N 44°25' E 008°55'0 0.0
2018-Jun-17 06:59N 44°25' E 008°55'0 0.0
2018-Jun-17 06:29N 44°25' E 008°55'0 0.0
2018-Jun-17 06:00N 44°25' E 008°55'0 0.6
2018-Jun-17 05:30N 44°24' E 008°55'2 4.3
2018-Jun-17 05:01N 44°23' E 008°57'4 8.0
2018-Jun-17 04:30N 44°19' E 008°59'4 8.0
2018-Jun-17 04:01N 44°15' E 008°59'4 8.3
2018-Jun-17 03:31N 44°11' E 008°59'4 8.2
2018-Jun-17 03:00N 44°07' E 008°59'4 8.2
2018-Jun-17 02:31N 44°03' E 008°59'4 8.2
2018-Jun-17 02:01N 43°59' E 008°59'4 8.1
2018-Jun-17 01:31N 43°55' E 008°59'4 7.9
2018-Jun-17 01:00N 43°51' E 008°59'4 7.9
2018-Jun-17 00:30N 43°47' E 008°59'4 8.4
2018-Jun-17 00:01N 43°43' E 008°59'4 8.3
2018-Jun-16 23:31N 43°39' E 009°01'4 8.0
2018-Jun-16 23:01N 43°38' E 009°07'4 8.2
2018-Jun-16 22:30N 43°38' E 009°12'4 8.2
2018-Jun-16 22:00N 43°38' E 009°18'4 8.4
2018-Jun-16 21:31N 43°38' E 009°24'4 8.1
2018-Jun-16 21:00N 43°40' E 009°29'4 8.3
2018-Jun-16 20:30N 43°42' E 009°33'4 8.2
2018-Jun-16 20:01N 43°45' E 009°38'4 8.2
2018-Jun-16 19:30N 43°48' E 009°42'4 8.1
2018-Jun-16 19:01N 43°51' E 009°46'4 8.2
2018-Jun-16 18:30N 43°53' E 009°50'4 8.2
2018-Jun-16 18:00N 43°57' E 009°52'4 9.0
2018-Jun-16 17:30N 44°02' E 009°52'5 9.8
2018-Jun-16 17:00N 44°06' E 009°50'0 0.2
2018-Jun-16 16:30N 44°06' E 009°50'0 0.0
2018-Jun-16 16:00N 44°06' E 009°50'0 0.0
2018-Jun-16 15:30N 44°06' E 009°50'0 0.0
2018-Jun-16 15:00N 44°06' E 009°50'0 0.0
2018-Jun-16 14:29N 44°06' E 009°50'0 0.0
2018-Jun-16 13:59N 44°06' E 009°50'0 0.0
2018-Jun-16 13:29N 44°06' E 009°50'0 0.0
2018-Jun-16 12:59N 44°06' E 009°50'0 0.0
2018-Jun-16 12:29N 44°06' E 009°50'0 0.0
2018-Jun-16 11:58N 44°06' E 009°50'0 0.0
2018-Jun-16 11:28N 44°06' E 009°50'0 0.0
2018-Jun-16 10:58N 44°06' E 009°50'0 0.0
2018-Jun-16 10:28N 44°06' E 009°50'0 0.0
2018-Jun-16 10:00N 44°06' E 009°50'0 0.0
2018-Jun-16 09:30N 44°06' E 009°50'0 0.0
2018-Jun-16 09:00N 44°06' E 009°50'0 0.0
2018-Jun-16 08:30N 44°06' E 009°50'0 0.0
2018-Jun-16 08:00N 44°06' E 009°50'0 0.0
2018-Jun-16 07:29N 44°06' E 009°50'0 0.0
2018-Jun-16 06:59N 44°06' E 009°50'0 0.0
2018-Jun-16 06:29N 44°06' E 009°50'0 0.0
2018-Jun-16 05:59N 44°06' E 009°50'0 0.0
2018-Jun-16 05:29N 44°06' E 009°50'0 0.0
2018-Jun-16 05:00N 44°06' E 009°50'0 0.6
2018-Jun-16 04:30N 44°06' E 009°50'3 6.6
2018-Jun-16 04:00N 44°03' E 009°52'611.9
2018-Jun-16 03:31N 43°58' E 009°57'816.6
2018-Jun-16 03:00N 43°51' E 009°51'917.0
2018-Jun-16 02:30N 43°43' E 009°45'816.5
2018-Jun-16 02:00N 43°36' E 009°40'815.8
2018-Jun-16 01:31N 43°28' E 009°39'917.3
2018-Jun-16 01:00N 43°21' E 009°45'917.5
2018-Jun-16 00:31N 43°14' E 009°52'917.6
2018-Jun-16 00:01N 43°06' E 009°59'917.1
2018-Jun-15 23:31N 42°58' E 010°01'917.4
2018-Jun-15 23:00N 42°49' E 010°01'816.8
2018-Jun-15 22:30N 42°41' E 010°05'918.3
2018-Jun-15 22:00N 42°35' E 010°15'918.3
2018-Jun-15 21:31N 42°30' E 010°24'1018.3
2018-Jun-15 20:59N 42°24' E 010°34'918.0
2018-Jun-15 20:30N 42°19' E 010°44'917.9
2018-Jun-15 20:00N 42°13' E 010°53'1017.5
2018-Jun-15 19:26N 42°07' E 011°04'817.9
2018-Jun-15 19:00N 42°06' E 011°14'  
Track history (hours):
 
Tides and Currents Weather Stations Pressure Air Temp Water Temp Dewpoint Dewpoint Depression Visibility Wind Speed Wind Dir Waves Ship Positions

MSC Fantasia

Last reported at 2018-Jun-25 00:29 UTC. Time now 2018-Jun-25 00:40 UTC.
Position N 43°34' E 007°49'.

Length 333 m; draft 8.6 m.

Type: Ship. MMSI: 370648000.

Date/timePositionNaut miles runAvg speedWind from/ knotsBaromVisibWave heightAir tempDewpointWater temp
2018-Jun-25 00:29N 43°34' E 007°49'4 8.8
2018-Jun-25 00:00N 43°36' E 007°55'4 8.6
2018-Jun-24 23:30N 43°37' E 008°00'4 8.4
2018-Jun-24 23:00N 43°39' E 008°06'4 8.3
2018-Jun-24 22:30N 43°41' E 008°11'4 8.5
2018-Jun-24 22:00N 43°43' E 008°16'4 8.6
2018-Jun-24 21:30N 43°45' E 008°20'4 8.6
2018-Jun-24 21:00N 43°49' E 008°24'4 8.8
2018-Jun-24 20:30N 43°52' E 008°28'4 8.9
2018-Jun-24 20:00N 43°56' E 008°32'5 9.0
2018-Jun-24 19:30N 43°59' E 008°36'4 8.9
2018-Jun-24 19:00N 44°03' E 008°40'4 9.0
2018-Jun-24 18:30N 44°06' E 008°43'5 9.1
2018-Jun-24 18:00N 44°10' E 008°47'5 9.2
2018-Jun-24 17:30N 44°13' E 008°51'5 9.1
2018-Jun-24 17:00N 44°17' E 008°55'4 8.6
2018-Jun-24 16:30N 44°21' E 008°57'4 7.9
2018-Jun-24 16:00N 44°25' E 008°55'0 0.2
2018-Jun-24 15:31N 44°25' E 008°55'0 0.0
2018-Jun-24 15:00N 44°25' E 008°55'0 0.0
2018-Jun-24 14:30N 44°25' E 008°55'0 0.0
2018-Jun-24 14:00N 44°25' E 008°55'0 0.0
2018-Jun-24 13:30N 44°25' E 008°55'0 0.0
2018-Jun-24 12:59N 44°25' E 008°55'0 0.0
2018-Jun-24 12:29N 44°25' E 008°55'0 0.0
2018-Jun-24 11:59N 44°25' E 008°55'0 0.0
2018-Jun-24 11:29N 44°25' E 008°55'0 0.0
2018-Jun-24 10:59N 44°25' E 008°55'0 0.0
2018-Jun-24 10:28N 44°25' E 008°55'0 0.0
2018-Jun-24 09:58N 44°25' E 008°55'0 0.0
2018-Jun-24 09:25N 44°25' E 008°55'0 0.0
2018-Jun-24 08:58N 44°25' E 008°55'0 0.0
2018-Jun-24 08:27N 44°25' E 008°55'0 0.0
2018-Jun-24 08:00N 44°25' E 008°55'0 0.0
2018-Jun-24 07:30N 44°25' E 008°55'0 0.0
2018-Jun-24 07:00N 44°25' E 008°55'0 0.0
2018-Jun-24 06:30N 44°25' E 008°55'0 0.0
2018-Jun-24 05:59N 44°25' E 008°55'0 0.0
2018-Jun-24 05:31N 44°25' E 008°55'1 2.6
2018-Jun-24 05:01N 44°24' E 008°56'4 8.6
2018-Jun-24 04:30N 44°20' E 008°59'4 8.8
2018-Jun-24 04:01N 44°15' E 008°59'5 9.0
2018-Jun-24 03:30N 44°11' E 008°59'4 8.6
2018-Jun-24 03:01N 44°07' E 008°59'4 8.1
2018-Jun-24 02:31N 44°03' E 008°59'4 7.9
2018-Jun-24 02:01N 43°59' E 008°59'4 7.9
2018-Jun-24 01:31N 43°55' E 008°59'4 8.0
2018-Jun-24 01:01N 43°51' E 008°59'4 8.0
2018-Jun-24 00:31N 43°47' E 008°59'4 8.1
2018-Jun-24 00:01N 43°43' E 008°59'4 7.7
2018-Jun-23 23:31N 43°39' E 009°02'4 8.2
2018-Jun-23 23:01N 43°39' E 009°07'4 8.1
2018-Jun-23 22:31N 43°39' E 009°13'4 8.2
2018-Jun-23 22:01N 43°39' E 009°19'4 7.9
2018-Jun-23 21:30N 43°38' E 009°24'4 8.3
2018-Jun-23 21:00N 43°38' E 009°30'4 8.3
2018-Jun-23 20:31N 43°41' E 009°34'4 8.2
2018-Jun-23 20:00N 43°44' E 009°38'4 8.2
2018-Jun-23 19:31N 43°47' E 009°42'4 8.4
2018-Jun-23 19:00N 43°50' E 009°46'4 8.4
2018-Jun-23 18:31N 43°53' E 009°50'4 8.1
2018-Jun-23 18:00N 43°57' E 009°52'4 9.0
2018-Jun-23 17:31N 44°01' E 009°52'4 8.7
2018-Jun-23 17:01N 44°05' E 009°51'1 2.1
2018-Jun-23 16:28N 44°06' E 009°50'0 0.0
2018-Jun-23 15:58N 44°06' E 009°50'0 0.0
2018-Jun-23 15:30N 44°06' E 009°50'0 0.0
2018-Jun-23 15:00N 44°06' E 009°50'0 0.0
2018-Jun-23 14:30N 44°06' E 009°50'0 0.0
2018-Jun-23 14:00N 44°06' E 009°50'0 0.0
2018-Jun-23 13:30N 44°06' E 009°50'0 0.0
2018-Jun-23 12:59N 44°06' E 009°50'0 0.0
2018-Jun-23 12:29N 44°06' E 009°50'0 0.0
2018-Jun-23 11:59N 44°06' E 009°50'0 0.0
2018-Jun-23 11:29N 44°06' E 009°50'0 0.0
2018-Jun-23 10:58N 44°06' E 009°50'0 0.0
2018-Jun-23 10:28N 44°06' E 009°50'0 0.0
2018-Jun-23 09:58N 44°06' E 009°50'0 0.0
2018-Jun-23 09:28N 44°06' E 009°50'0 0.0
2018-Jun-23 08:58N 44°06' E 009°50'0 0.0
2018-Jun-23 08:30N 44°06' E 009°50'0 0.0
2018-Jun-23 08:00N 44°06' E 009°50'0 0.0
2018-Jun-23 07:30N 44°06' E 009°50'0 0.0
2018-Jun-23 07:00N 44°06' E 009°50'0 0.0
2018-Jun-23 06:29N 44°06' E 009°50'0 0.0
2018-Jun-23 05:59N 44°06' E 009°50'0 0.0
2018-Jun-23 05:29N 44°06' E 009°50'0 0.0
2018-Jun-23 04:59N 44°06' E 009°50'0 0.9
2018-Jun-23 04:30N 44°06' E 009°51'4 8.3
2018-Jun-23 04:01N 44°02' E 009°53'612.6
2018-Jun-23 03:31N 43°56' E 009°56'816.5
2018-Jun-23 03:01N 43°49' E 009°51'816.5
2018-Jun-23 02:31N 43°41' E 009°46'917.4
2018-Jun-23 02:01N 43°33' E 009°44'917.1
2018-Jun-23 01:30N 43°24' E 009°43'817.0
2018-Jun-23 01:01N 43°16' E 009°41'816.9
2018-Jun-23 00:31N 43°07' E 009°39'816.8
2018-Jun-23 00:01N 42°59' E 009°39'816.4
2018-Jun-22 23:30N 42°52' E 009°45'1017.4
2018-Jun-22 22:56N 42°46' E 009°56'917.4
2018-Jun-22 22:24N 42°40' E 010°06'818.0
2018-Jun-22 21:58N 42°36' E 010°15'818.2
2018-Jun-22 21:30N 42°30' E 010°23'918.0
2018-Jun-22 20:58N 42°24' E 010°33'3417.6
2018-Jun-22 19:04N 42°07' E 011°12'118.4
2018-Jun-22 19:01N 42°07' E 011°14'11 0.7
2018-Jun-22 02:59N 41°60' E 011°26'1214.0
2018-Jun-22 02:07N 41°55' E 011°10'313.9
2018-Jun-22 01:55N 41°54' E 011°07'613.9
2018-Jun-22 01:30N 41°52' E 011°00'713.9
2018-Jun-22 01:00N 41°49' E 010°51'713.9
2018-Jun-22 00:30N 41°46' E 010°43'714.2
2018-Jun-22 00:00N 41°43' E 010°34'1114.1
2018-Jun-21 23:16N 41°40' E 010°21'414.1
2018-Jun-21 23:00N 41°38' E 010°17'714.2
2018-Jun-21 22:30N 41°36' E 010°08'714.4
2018-Jun-21 22:00N 41°32' E 009°59'1117.6
2018-Jun-21 21:22N 41°27' E 009°46'617.0
2018-Jun-21 21:00N 41°25' E 009°39'917.3
2018-Jun-21 20:30N 41°23' E 009°27'4114.9
2018-Jun-21 17:46N 41°41' E 008°38'10 1.1
2018-Jun-21 08:38N 41°50' E 008°40'318.7
2018-Jun-21 08:30N 41°49' E 008°37'3418.5
2018-Jun-21 06:41N 41°43' E 007°53'318.5
2018-Jun-21 06:30N 41°42' E 007°48'1118.3
2018-Jun-21 05:54N 41°41' E 007°33'817.6
2018-Jun-21 05:25N 41°40' E 007°22'717.4
2018-Jun-21 05:00N 41°39' E 007°12'917.2
2018-Jun-21 04:30N 41°39' E 007°01'21318.3
2018-Jun-20 16:55N 41°15' E 002°19'615.7
2018-Jun-20 16:30N 41°16' E 002°11'510.2
2018-Jun-20 16:00N 41°21' E 002°10'0 0.9
2018-Jun-20 15:30N 41°22' E 002°11'0 0.0
2018-Jun-20 14:56N 41°22' E 002°11'0 0.0
2018-Jun-20 14:29N 41°22' E 002°11'0 0.0
2018-Jun-20 13:59N 41°22' E 002°11'0 0.0
2018-Jun-20 13:29N 41°22' E 002°11'0 0.0
2018-Jun-20 12:59N 41°22' E 002°11'0 0.0
2018-Jun-20 12:25N 41°22' E 002°11'0 0.0
2018-Jun-20 11:58N 41°22' E 002°11'0 0.0
2018-Jun-20 11:25N 41°22' E 002°11'0 0.0
2018-Jun-20 10:55N 41°22' E 002°11'0 0.0
2018-Jun-20 10:30N 41°22' E 002°11'0 0.0
2018-Jun-20 10:00N 41°22' E 002°11'0 0.0
2018-Jun-20 09:30N 41°22' E 002°11'0 0.0
2018-Jun-20 09:00N 41°22' E 002°11'0 0.0
2018-Jun-20 08:30N 41°22' E 002°11'0 0.0
2018-Jun-20 07:59N 41°22' E 002°11'0 0.0
2018-Jun-20 07:29N 41°22' E 002°11'0 0.0
2018-Jun-20 06:59N 41°22' E 002°11'0 0.0
2018-Jun-20 06:29N 41°22' E 002°11'1 1.3
2018-Jun-20 06:00N 41°21' E 002°10'3 6.1
2018-Jun-20 05:30N 41°18' E 002°11'816.4
2018-Jun-20 05:00N 41°10' E 002°11'918.1
2018-Jun-20 04:30N 41°01' E 002°11'917.8
2018-Jun-20 03:59N 40°52' E 002°11'918.0
2018-Jun-20 03:30N 40°43' E 002°12'918.5
2018-Jun-20 03:00N 40°34' E 002°12'1118.7
2018-Jun-20 02:27N 40°23' E 002°12'5520.4
2018-Jun-19 23:44N 39°28' E 002°22'521.2
2018-Jun-19 23:30N 39°26' E 002°27'918.4
2018-Jun-19 23:00N 39°30' E 002°37'3 5.6
2018-Jun-19 22:30N 39°33' E 002°38'0 0.0
2018-Jun-19 21:59N 39°33' E 002°38'0 0.0
2018-Jun-19 21:29N 39°33' E 002°38'0 0.0
2018-Jun-19 20:58N 39°33' E 002°38'0 0.0
2018-Jun-19 20:28N 39°33' E 002°38'0 0.0
2018-Jun-19 19:58N 39°33' E 002°38'0 0.0
2018-Jun-19 19:28N 39°33' E 002°38'0 0.0
2018-Jun-19 18:58N 39°33' E 002°38'0 0.0
2018-Jun-19 18:30N 39°33' E 002°38'0 0.0
2018-Jun-19 18:00N 39°33' E 002°38'0 0.0
2018-Jun-19 17:30N 39°33' E 002°38'0 0.0
2018-Jun-19 17:00N 39°33' E 002°38'0 0.0
2018-Jun-19 16:30N 39°33' E 002°38'0 0.0
2018-Jun-19 15:59N 39°33' E 002°38'0 0.0
2018-Jun-19 15:29N 39°33' E 002°38'0 0.0
2018-Jun-19 14:59N 39°33' E 002°38'0 0.0
2018-Jun-19 14:29N 39°33' E 002°38'0 0.0
2018-Jun-19 13:58N 39°33' E 002°38'0 0.0
2018-Jun-19 13:28N 39°33' E 002°38'0 0.0
2018-Jun-19 12:58N 39°33' E 002°38'0 0.0
2018-Jun-19 12:28N 39°33' E 002°38'0 0.0
2018-Jun-19 12:01N 39°33' E 002°38'0 0.1
2018-Jun-19 11:30N 39°33' E 002°38'1 2.7
2018-Jun-19 11:00N 39°32' E 002°39'714.6
2018-Jun-19 10:30N 39°26' E 002°34'2510.5
2018-Jun-19 08:07N 39°51' E 002°37'217.4
2018-Jun-19 08:00N 39°52' E 002°39'917.3
2018-Jun-19 07:29N 39°58' E 002°48'24818.4
2018-Jun-18 17:57N 42°42' E 006°56'919.3
2018-Jun-18 17:30N 42°49' E 007°03'1420.2
2018-Jun-18 16:49N 43°03' E 007°03'620.1
2018-Jun-18 16:29N 43°09' E 007°03'1020.6
2018-Jun-18 16:00N 43°19' E 007°01'1020.0
2018-Jun-18 15:30N 43°29' E 007°01'3 5.6
2018-Jun-18 14:58N 43°32' E 007°01'0 0.0
2018-Jun-18 14:28N 43°32' E 007°01'0 0.0
2018-Jun-18 13:55N 43°32' E 007°01'0 0.0
2018-Jun-18 13:30N 43°32' E 007°01'0 0.0
2018-Jun-18 13:00N 43°32' E 007°01'0 0.0
2018-Jun-18 12:30N 43°32' E 007°01'0 0.0
2018-Jun-18 12:00N 43°32' E 007°01'0 0.0
2018-Jun-18 11:23N 43°32' E 007°01'0 0.0
2018-Jun-18 10:59N 43°32' E 007°01'0 0.0
2018-Jun-18 10:29N 43°32' E 007°01'0 0.0
2018-Jun-18 09:59N 43°32' E 007°01'0 0.0
2018-Jun-18 09:29N 43°32' E 007°01'0 0.0
2018-Jun-18 08:58N 43°32' E 007°01'0 0.0
2018-Jun-18 08:28N 43°32' E 007°01'0 0.0
2018-Jun-18 07:58N 43°32' E 007°01'0 0.0
2018-Jun-18 07:28N 43°32' E 007°01'0 0.0
2018-Jun-18 07:01N 43°32' E 007°01'0 0.0
2018-Jun-18 06:30N 43°32' E 007°01'0 0.0
2018-Jun-18 06:00N 43°32' E 007°01'0 0.0
2018-Jun-18 05:31N 43°32' E 007°01'0 0.1
2018-Jun-18 05:00N 43°32' E 007°01'3 5.8
2018-Jun-18 04:30N 43°29' E 007°01'4 8.4
2018-Jun-18 04:01N 43°28' E 007°07'4 8.7
2018-Jun-18 03:30N 43°28' E 007°13'4 8.6
2018-Jun-18 03:00N 43°29' E 007°19'4 8.7
2018-Jun-18 02:30N 43°30' E 007°25'4 9.0
2018-Jun-18 02:00N 43°31' E 007°31'4 9.0
2018-Jun-18 01:31N 43°32' E 007°37'5 9.0
2018-Jun-18 01:00N 43°33' E 007°43'5 9.0
2018-Jun-18 00:30N 43°34' E 007°49'5 9.0
2018-Jun-17 23:55N 43°36' E 007°55'4 9.0
2018-Jun-17 23:30N 43°37' E 008°00'4 9.0
2018-Jun-17 23:01N 43°39' E 008°06'5 9.0
2018-Jun-17 22:30N 43°41' E 008°12'4 9.0
2018-Jun-17 22:00N 43°43' E 008°17'4 9.0
2018-Jun-17 21:31N 43°46' E 008°21'5 9.2
2018-Jun-17 21:00N 43°50' E 008°25'5 9.2
2018-Jun-17 20:30N 43°53' E 008°29'5 9.3
2018-Jun-17 20:01N 43°57' E 008°33'5 9.3
2018-Jun-17 19:31N 44°01' E 008°37'5 9.1
2018-Jun-17 19:00N 44°04' E 008°41'5 9.2
2018-Jun-17 18:30N 44°08' E 008°45'5 9.2
2018-Jun-17 18:01N 44°12' E 008°49'5 9.2
2018-Jun-17 17:30N 44°15' E 008°53'5 9.1
2018-Jun-17 17:01N 44°19' E 008°57'5 9.4
2018-Jun-17 16:30N 44°23' E 008°56'2 3.4
2018-Jun-17 16:00N 44°25' E 008°55'0 0.0
2018-Jun-17 15:27N 44°25' E 008°55'0 0.0
2018-Jun-17 14:57N 44°25' E 008°55'0 0.0
2018-Jun-17 14:27N 44°25' E 008°55'0 0.0
2018-Jun-17 13:56N 44°25' E 008°55'0 0.0
2018-Jun-17 13:29N 44°25' E 008°55'0 0.0
2018-Jun-17 12:59N 44°25' E 008°55'0 0.0
2018-Jun-17 12:26N 44°25' E 008°55'0 0.0
2018-Jun-17 11:53N 44°25' E 008°55'0 0.0
2018-Jun-17 11:25N 44°25' E 008°55'0 0.0
2018-Jun-17 10:58N 44°25' E 008°55'0 0.0
2018-Jun-17 10:28N 44°25' E 008°55'0 0.0
2018-Jun-17 09:58N 44°25' E 008°55'0 0.0
2018-Jun-17 09:24N 44°25' E 008°55'0 0.0
2018-Jun-17 09:00N 44°25' E 008°55'0 0.0
2018-Jun-17 08:30N 44°25' E 008°55'0 0.0
2018-Jun-17 08:00N 44°25' E 008°55'0 0.0
2018-Jun-17 07:30N 44°25' E 008°55'0 0.0
2018-Jun-17 06:59N 44°25' E 008°55'0 0.0
2018-Jun-17 06:29N 44°25' E 008°55'0 0.0
2018-Jun-17 06:00N 44°25' E 008°55'0 0.6
2018-Jun-17 05:30N 44°24' E 008°55'2 4.3
2018-Jun-17 05:01N 44°23' E 008°57'4 8.0
2018-Jun-17 04:30N 44°19' E 008°59'4 8.0
2018-Jun-17 04:01N 44°15' E 008°59'4 8.3
2018-Jun-17 03:31N 44°11' E 008°59'4 8.2
2018-Jun-17 03:00N 44°07' E 008°59'4 8.2
2018-Jun-17 02:31N 44°03' E 008°59'4 8.2
2018-Jun-17 02:01N 43°59' E 008°59'4 8.1
2018-Jun-17 01:31N 43°55' E 008°59'4 7.9
2018-Jun-17 01:00N 43°51' E 008°59'4 7.9
2018-Jun-17 00:30N 43°47' E 008°59'4 8.4
2018-Jun-17 00:01N 43°43' E 008°59'4 8.3
2018-Jun-16 23:31N 43°39' E 009°01'4 8.0
2018-Jun-16 23:01N 43°38' E 009°07'4 8.2
2018-Jun-16 22:30N 43°38' E 009°12'4 8.2
2018-Jun-16 22:00N 43°38' E 009°18'4 8.4
2018-Jun-16 21:31N 43°38' E 009°24'4 8.1
2018-Jun-16 21:00N 43°40' E 009°29'4 8.3
2018-Jun-16 20:30N 43°42' E 009°33'4 8.2
2018-Jun-16 20:01N 43°45' E 009°38'4 8.2
2018-Jun-16 19:30N 43°48' E 009°42'4 8.1
2018-Jun-16 19:01N 43°51' E 009°46'4 8.2
2018-Jun-16 18:30N 43°53' E 009°50'4 8.2
2018-Jun-16 18:00N 43°57' E 009°52'4 9.0
2018-Jun-16 17:30N 44°02' E 009°52'5 9.8
2018-Jun-16 17:00N 44°06' E 009°50'0 0.2
2018-Jun-16 16:30N 44°06' E 009°50'0 0.0
2018-Jun-16 16:00N 44°06' E 009°50'0 0.0
2018-Jun-16 15:30N 44°06' E 009°50'0 0.0
2018-Jun-16 15:00N 44°06' E 009°50'0 0.0
2018-Jun-16 14:29N 44°06' E 009°50'0 0.0
2018-Jun-16 13:59N 44°06' E 009°50'0 0.0
2018-Jun-16 13:29N 44°06' E 009°50'0 0.0
2018-Jun-16 12:59N 44°06' E 009°50'0 0.0
2018-Jun-16 12:29N 44°06' E 009°50'0 0.0
2018-Jun-16 11:58N 44°06' E 009°50'0 0.0
2018-Jun-16 11:28N 44°06' E 009°50'0 0.0
2018-Jun-16 10:58N 44°06' E 009°50'0 0.0
2018-Jun-16 10:28N 44°06' E 009°50'0 0.0
2018-Jun-16 10:00N 44°06' E 009°50'0 0.0
2018-Jun-16 09:30N 44°06' E 009°50'0 0.0
2018-Jun-16 09:00N 44°06' E 009°50'0 0.0
2018-Jun-16 08:30N 44°06' E 009°50'0 0.0
2018-Jun-16 08:00N 44°06' E 009°50'0 0.0
2018-Jun-16 07:29N 44°06' E 009°50'0 0.0
2018-Jun-16 06:59N 44°06' E 009°50'0 0.0
2018-Jun-16 06:29N 44°06' E 009°50'0 0.0
2018-Jun-16 05:59N 44°06' E 009°50'0 0.0
2018-Jun-16 05:29N 44°06' E 009°50'0 0.0
2018-Jun-16 05:00N 44°06' E 009°50'0 0.6
2018-Jun-16 04:30N 44°06' E 009°50'3 6.6
2018-Jun-16 04:00N 44°03' E 009°52'611.9
2018-Jun-16 03:31N 43°58' E 009°57'816.6
2018-Jun-16 03:00N 43°51' E 009°51'917.0
2018-Jun-16 02:30N 43°43' E 009°45'816.5
2018-Jun-16 02:00N 43°36' E 009°40'815.8
2018-Jun-16 01:31N 43°28' E 009°39'917.3
2018-Jun-16 01:00N 43°21' E 009°45'917.5
2018-Jun-16 00:31N 43°14' E 009°52'917.6
2018-Jun-16 00:01N 43°06' E 009°59'917.1
2018-Jun-15 23:31N 42°58' E 010°01'917.4
2018-Jun-15 23:00N 42°49' E 010°01'816.8
2018-Jun-15 22:30N 42°41' E 010°05'918.3
2018-Jun-15 22:00N 42°35' E 010°15'918.3
2018-Jun-15 21:31N 42°30' E 010°24'1018.3
2018-Jun-15 20:59N 42°24' E 010°34'918.0
2018-Jun-15 20:30N 42°19' E 010°44'917.9
2018-Jun-15 20:00N 42°13' E 010°53'1017.5
2018-Jun-15 19:26N 42°07' E 011°04'817.9
2018-Jun-15 19:00N 42°06' E 011°14'  

Dump ship's entire track history